Time;durP1;ratioP1;P1;durP2;ratioP2;P2;SDS_P1;SDS_P2;PMS_P1;PMS_P2;Temp;Humidity;BMP_temperature;BMP_pressure;BME280_temperature;BME280_humidity;BME280_pressure;Samples;Min_cycle;Max_cycle;Signal;HPM_P1;HPM_P2
2024/02/21 00:00:13;;;;;;;18.65;3.63;;;9.80;99.90;;;;;;6176235;28;20054;-85
2024/02/21 00:03:14;;;;;;;18.63;2.97;;;9.80;99.90;;;;;;6172277;28;20672;-86
2024/02/21 00:06:16;;;;;;;18.20;2.97;;;9.80;99.90;;;;;;6174654;28;20066;-86
2024/02/21 00:09:19;;;;;;;18.88;3.30;;;9.80;99.90;;;;;;6197806;28;20057;-85
2024/02/21 00:12:21;;;;;;;16.90;3.08;;;9.80;99.90;;;;;;6195544;28;20077;-84
2024/02/21 00:15:22;;;;;;;15.85;3.20;;;9.80;99.90;;;;;;6169877;28;20190;-84
2024/02/21 00:18:24;;;;;;;15.18;3.17;;;9.80;99.90;;;;;;6198936;28;20054;-85
2024/02/21 00:21:30;;;;;;;21.05;3.33;;;9.80;99.90;;;;;;6177786;28;20157;-86
2024/02/21 00:24:32;;;;;;;17.90;3.55;;;9.80;99.90;;;;;;6190502;28;20058;-84
2024/02/21 00:27:34;;;;;;;14.90;3.30;;;9.90;99.90;;;;;;6200009;28;20078;-85
2024/02/21 00:30:38;;;;;;;18.15;3.17;;;9.90;99.90;;;;;;6165020;28;20057;-85
2024/02/21 00:33:39;;;;;;;15.05;3.25;;;9.90;99.90;;;;;;6188368;28;20529;-84
2024/02/21 00:36:41;;;;;;;12.80;3.22;;;9.90;99.90;;;;;;6180452;28;20054;-87
2024/02/21 00:39:42;;;;;;;17.17;3.45;;;9.90;99.90;;;;;;6207393;28;20049;-86
2024/02/21 00:42:44;;;;;;;15.52;2.92;;;9.90;99.90;;;;;;6186008;28;20241;-87
2024/02/21 00:45:46;;;;;;;18.88;3.85;;;10.00;99.90;;;;;;6197827;28;20060;-87
2024/02/21 00:48:49;;;;;;;16.80;2.70;;;10.00;99.90;;;;;;6189627;28;20054;-86
2024/02/21 00:51:51;;;;;;;12.77;2.70;;;10.50;99.90;;;;;;6174346;28;20054;-85
2024/02/21 00:54:53;;;;;;;14.00;2.90;;;10.00;99.90;;;;;;6182106;28;20054;-85
2024/02/21 00:57:56;;;;;;;15.60;2.72;;;10.30;99.90;;;;;;6191765;28;20053;-86
2024/02/21 01:00:57;;;;;;;11.20;2.40;;;9.90;99.90;;;;;;6190059;28;20483;-84
2024/02/21 01:04:00;;;;;;;13.63;2.60;;;9.90;99.90;;;;;;6173297;28;20148;-87
2024/02/21 01:07:01;;;;;;;14.48;2.83;;;9.90;99.90;;;;;;6198879;28;20053;-84
2024/02/21 01:10:03;;;;;;;16.58;3.13;;;9.80;99.90;;;;;;6178812;28;20062;-85
2024/02/21 01:13:09;;;;;;;17.60;2.50;;;9.80;99.90;;;;;;6189286;28;20054;-84
2024/02/21 01:16:11;;;;;;;15.77;3.05;;;9.80;99.90;;;;;;6177285;28;20066;-85
2024/02/21 01:19:12;;;;;;;15.25;3.20;;;9.80;99.90;;;;;;6190067;28;20058;-85
2024/02/21 01:22:15;;;;;;;23.50;3.38;;;9.80;99.90;;;;;;6170999;28;20051;-84
2024/02/21 01:25:17;;;;;;;19.17;3.35;;;9.80;99.90;;;;;;6195760;28;20054;-86
2024/02/21 01:28:19;;;;;;;20.13;3.47;;;9.80;99.90;;;;;;6169463;28;20060;-86
2024/02/21 01:31:23;;;;;;;17.15;2.85;;;9.80;99.90;;;;;;6190446;28;20058;-86
2024/02/21 01:34:25;;;;;;;19.95;3.25;;;9.80;99.90;;;;;;6171185;28;20442;-86
2024/02/21 01:37:28;;;;;;;19.35;3.30;;;9.80;99.90;;;;;;6194714;28;20062;-83
2024/02/21 01:40:30;;;;;;;15.50;3.22;;;9.80;99.90;;;;;;6186720;28;20502;-86
2024/02/21 01:43:32;;;;;;;13.57;2.53;;;9.80;99.90;;;;;;6175630;28;20386;-87
2024/02/21 01:46:33;;;;;;;16.27;3.42;;;9.70;99.90;;;;;;6181036;28;20078;-86
2024/02/21 01:49:35;;;;;;;19.50;3.33;;;9.80;99.90;;;;;;6179271;28;20058;-86
2024/02/21 01:52:37;;;;;;;19.02;3.08;;;9.70;99.90;;;;;;6175520;28;20069;-85
2024/02/21 01:55:39;;;;;;;16.00;3.15;;;9.80;99.90;;;;;;6179005;28;20050;-86
2024/02/21 01:58:44;;;;;;;23.65;3.65;;;9.80;99.90;;;;;;6171289;28;20050;-86
2024/02/21 02:01:46;;;;;;;17.48;2.97;;;9.80;99.90;;;;;;6199464;28;20054;-87
2024/02/21 02:04:48;;;;;;;19.02;3.40;;;9.90;99.90;;;;;;6176771;28;20063;-86
2024/02/21 02:07:50;;;;;;;16.58;3.08;;;9.90;99.90;;;;;;6199249;28;20047;-86
2024/02/21 02:10:52;;;;;;;23.20;3.33;;;10.00;99.90;;;;;;6189871;28;20066;-87
2024/02/21 02:13:54;;;;;;;15.07;3.35;;;10.00;99.90;;;;;;6182075;28;20418;-88
2024/02/21 02:16:56;;;;;;;15.98;3.10;;;10.00;99.90;;;;;;6178038;28;20062;-87
2024/02/21 02:19:57;;;;;;;15.77;3.42;;;10.00;99.90;;;;;;6184157;28;20438;-87
2024/02/21 02:22:59;;;;;;;17.38;3.28;;;10.00;99.90;;;;;;6198080;28;20054;-88
2024/02/21 02:26:01;;;;;;;18.92;3.30;;;9.90;99.90;;;;;;6175669;28;20491;-87
2024/02/21 02:29:03;;;;;;;15.55;3.38;;;9.90;99.90;;;;;;6172455;28;20057;-86
2024/02/21 02:32:05;;;;;;;18.30;3.70;;;9.90;99.90;;;;;;6174933;28;20065;-86
2024/02/21 02:35:07;;;;;;;17.40;3.38;;;10.30;99.90;;;;;;6197703;28;20050;-86
2024/02/21 02:38:09;;;;;;;16.00;2.97;;;10.00;99.90;;;;;;6174638;28;20498;-87
2024/02/21 02:41:11;;;;;;;20.15;3.60;;;10.00;99.90;;;;;;6173665;28;20137;-86
2024/02/21 02:44:12;;;;;;;17.73;3.53;;;9.90;99.90;;;;;;6165033;28;20513;-86
2024/02/21 02:47:14;;;;;;;16.67;3.40;;;10.00;99.90;;;;;;6198159;28;20054;-88
2024/02/21 02:50:16;;;;;;;19.98;4.03;;;10.00;99.90;;;;;;6176868;28;20061;-85
2024/02/21 02:53:18;;;;;;;16.23;3.42;;;10.00;99.90;;;;;;6194431;28;20047;-85
2024/02/21 02:56:19;;;;;;;14.27;2.92;;;10.00;99.90;;;;;;6197979;28;20054;-86
2024/02/21 02:59:21;;;;;;;18.33;3.30;;;10.00;99.90;;;;;;6169083;28;20051;-88
2024/02/21 03:02:23;;;;;;;19.27;4.28;;;10.00;99.90;;;;;;6173971;28;20070;-87
2024/02/21 03:05:24;;;;;;;14.77;3.20;;;10.00;99.90;;;;;;6198019;28;20501;-87
2024/02/21 03:08:26;;;;;;;15.57;3.60;;;10.00;99.90;;;;;;6173793;28;20081;-86
2024/02/21 03:11:28;;;;;;;18.92;3.85;;;10.00;99.90;;;;;;6197662;28;20066;-87
2024/02/21 03:14:31;;;;;;;20.08;3.63;;;10.00;99.90;;;;;;6157032;28;20050;-87
2024/02/21 03:17:36;;;;;;;21.80;3.95;;;9.90;99.90;;;;;;6197524;28;20054;-89
2024/02/21 03:20:38;;;;;;;12.88;3.17;;;10.00;99.90;;;;;;6175450;28;20110;-89
2024/02/21 03:23:40;;;;;;;15.85;3.50;;;10.00;99.90;;;;;;6199300;28;20054;-85
2024/02/21 03:26:41;;;;;;;19.02;3.05;;;10.00;99.90;;;;;;6175854;28;20495;-88
2024/02/21 03:29:43;;;;;;;15.93;3.13;;;9.90;99.90;;;;;;6180856;28;20054;-88
2024/02/21 03:32:45;;;;;;;19.85;3.13;;;9.90;99.90;;;;;;6197843;28;20046;-87
2024/02/21 03:35:46;;;;;;;15.85;3.05;;;10.20;99.90;;;;;;6177704;28;20074;-86
2024/02/21 03:38:48;;;;;;;13.90;3.00;;;9.90;99.90;;;;;;6197866;28;20054;-86
2024/02/21 03:41:51;;;;;;;16.73;3.03;;;9.90;99.90;;;;;;6174860;28;20080;-87
2024/02/21 03:44:54;;;;;;;13.80;3.00;;;9.90;99.90;;;;;;6180663;28;20140;-87
2024/02/21 03:47:56;;;;;;;19.95;3.15;;;10.00;99.90;;;;;;6174599;28;20066;-86
2024/02/21 03:50:58;;;;;;;16.30;3.03;;;9.90;99.90;;;;;;6178827;28;20086;-85
2024/02/21 03:53:59;;;;;;;14.05;2.53;;;9.90;99.90;;;;;;6187231;28;20058;-88
2024/02/21 03:57:02;;;;;;;14.40;2.78;;;9.90;99.90;;;;;;6193711;28;20484;-88
2024/02/21 04:00:05;;;;;;;14.93;2.83;;;9.80;99.90;;;;;;6165481;28;20093;-87
2024/02/21 04:03:07;;;;;;;14.57;2.95;;;9.80;99.90;;;;;;6174546;28;20066;-86
2024/02/21 04:06:08;;;;;;;14.90;2.47;;;9.80;99.90;;;;;;6195783;28;20133;-88
2024/02/21 04:12:12;;;;;;;13.55;2.80;;;9.80;99.90;;;;;;6170053;28;20117;-88
2024/02/21 04:15:14;;;;;;;15.32;2.58;;;9.80;99.90;;;;;;6130701;28;20063;-88
2024/02/21 04:18:16;;;;;;;21.48;3.53;;;9.90;99.90;;;;;;6173240;28;20059;-89
2024/02/21 04:21:17;;;;;;;14.38;3.00;;;9.80;99.90;;;;;;6167163;28;20050;-87
2024/02/21 04:24:19;;;;;;;13.27;2.70;;;10.00;99.90;;;;;;6161407;28;20202;-87
2024/02/21 04:27:21;;;;;;;15.27;2.90;;;9.80;99.90;;;;;;6150443;28;20502;-87
2024/02/21 04:30:23;;;;;;;12.35;2.28;;;9.80;99.90;;;;;;6173311;28;20351;-88
2024/02/21 04:33:24;;;;;;;11.48;2.60;;;9.80;99.90;;;;;;6149154;28;20479;-90
2024/02/21 04:36:26;;;;;;;12.43;2.55;;;9.80;99.90;;;;;;6163889;28;20051;-87
2024/02/21 04:39:27;;;;;;;13.60;2.40;;;9.80;99.90;;;;;;6188129;28;20053;-89
2024/02/21 04:42:29;;;;;;;13.85;2.47;;;9.80;99.90;;;;;;6169140;28;20061;-86
2024/02/21 04:45:31;;;;;;;11.63;2.30;;;9.70;99.90;;;;;;6160870;23;20070;-86
2024/02/21 04:48:33;;;;;;;15.35;2.90;;;9.70;99.90;;;;;;6170742;28;20051;-83
2024/02/21 04:51:34;;;;;;;9.40;2.30;;;9.70;99.90;;;;;;6150297;28;20047;-85
2024/02/21 04:54:38;;;;;;;10.35;2.47;;;9.70;99.90;;;;;;6169914;28;20525;-84
2024/02/21 04:57:40;;;;;;;11.10;1.90;;;9.70;99.90;;;;;;6151638;28;20058;-84
2024/02/21 05:00:41;;;;;;;12.55;2.30;;;9.70;99.90;;;;;;6137162;29;20082;-84
2024/02/21 05:03:43;;;;;;;12.68;2.35;;;9.70;99.90;;;;;;6149076;28;20057;-83
2024/02/21 05:06:45;;;;;;;12.80;2.45;;;9.70;99.90;;;;;;6151511;28;20066;-84
2024/02/21 05:09:46;;;;;;;10.05;2.20;;;9.70;99.90;;;;;;6169523;28;20062;-82
2024/02/21 05:12:48;;;;;;;10.93;2.38;;;9.60;99.90;;;;;;6165255;28;20059;-82
2024/02/21 05:15:50;;;;;;;11.85;2.80;;;9.60;99.90;;;;;;6165767;28;20059;-82
2024/02/21 05:18:52;;;;;;;9.63;2.33;;;9.60;99.90;;;;;;6146818;28;20074;-81
2024/02/21 05:21:53;;;;;;;14.43;2.40;;;9.60;99.90;;;;;;6170791;28;20069;-82
2024/02/21 05:24:55;;;;;;;11.75;2.42;;;9.60;99.90;;;;;;6149514;28;20410;-82
2024/02/21 05:28:01;;;;;;;12.43;2.08;;;9.60;99.90;;;;;;6151847;28;20061;-84
2024/02/21 05:31:03;;;;;;;15.80;2.45;;;9.70;99.90;;;;;;6170274;28;20435;-83
2024/02/21 05:34:04;;;;;;;17.92;2.58;;;9.70;99.90;;;;;;6147334;28;20059;-83
2024/02/21 05:37:06;;;;;;;8.40;2.40;;;9.70;99.90;;;;;;6171364;28;20090;-82
2024/02/21 05:40:08;;;;;;;15.40;3.00;;;9.70;99.90;;;;;;6153555;28;20426;-86
2024/02/21 05:43:09;;;;;;;11.15;2.70;;;9.70;99.90;;;;;;6137252;28;20042;-79
2024/02/21 05:46:11;;;;;;;13.63;2.50;;;9.70;99.90;;;;;;6147666;28;20055;-83
2024/02/21 05:49:14;;;;;;;9.43;1.98;;;9.70;99.90;;;;;;6170294;28;20066;-82
2024/02/21 05:52:16;;;;;;;13.05;2.58;;;9.60;99.90;;;;;;6163329;28;20069;-81
2024/02/21 05:55:17;;;;;;;10.70;2.35;;;9.40;99.90;;;;;;6169652;28;20138;-82
2024/02/21 05:58:19;;;;;;;9.75;2.20;;;9.30;99.90;;;;;;6147092;28;20584;-80
2024/02/21 06:01:21;;;;;;;12.07;2.50;;;9.30;99.90;;;;;;6165161;28;20138;-81
2024/02/21 06:04:23;;;;;;;10.15;2.60;;;9.20;99.90;;;;;;6146628;28;20058;-83
2024/02/21 06:07:25;;;;;;;12.15;2.47;;;9.10;99.90;;;;;;6168682;28;20082;-81
2024/02/21 06:10:26;;;;;;;14.55;2.92;;;9.10;99.90;;;;;;6146716;28;20426;-82
2024/02/21 06:13:28;;;;;;;9.70;1.98;;;9.10;99.90;;;;;;6146163;28;20146;-81
2024/02/21 06:16:30;;;;;;;9.20;2.58;;;9.10;99.90;;;;;;6158988;28;20144;-81
2024/02/21 06:19:31;;;;;;;8.27;2.30;;;9.00;99.90;;;;;;6146738;28;20059;-80
2024/02/21 06:22:35;;;;;;;8.45;1.90;;;9.00;99.90;;;;;;6162866;28;20054;-80
2024/02/21 06:25:36;;;;;;;9.30;1.90;;;9.00;99.90;;;;;;6157449;28;20193;-80
2024/02/21 06:28:38;;;;;;;8.73;2.38;;;9.00;99.90;;;;;;6152701;28;20055;-82
2024/02/21 06:31:40;;;;;;;6.60;1.77;;;9.00;99.90;;;;;;6155816;28;20055;-83
2024/02/21 06:34:41;;;;;;;13.52;2.15;;;9.00;99.90;;;;;;6173921;28;20051;-82
2024/02/21 06:37:45;;;;;;;6.18;1.70;;;9.00;99.90;;;;;;6154466;28;20058;-83
2024/02/21 06:40:49;;;;;;;6.57;1.65;;;9.00;99.90;;;;;;6150867;28;20047;-83
2024/02/21 06:43:51;;;;;;;8.18;1.70;;;9.00;99.90;;;;;;6148203;28;20071;-83
2024/02/21 06:46:54;;;;;;;7.93;1.40;;;9.00;99.90;;;;;;6164125;28;20078;-83
2024/02/21 06:49:56;;;;;;;6.15;1.58;;;8.90;99.90;;;;;;6156761;28;20058;-83
2024/02/21 06:52:57;;;;;;;4.57;1.50;;;9.00;99.90;;;;;;6172797;28;20145;-82
2024/02/21 06:55:59;;;;;;;5.32;1.92;;;8.90;99.90;;;;;;6151231;28;20056;-82
2024/02/21 06:59:01;;;;;;;6.18;1.83;;;8.90;99.90;;;;;;6155690;28;20055;-88
2024/02/21 07:02:03;;;;;;;6.25;2.00;;;8.90;99.90;;;;;;6174011;28;20675;-82
2024/02/21 07:05:05;;;;;;;5.10;1.50;;;8.90;99.90;;;;;;6173920;28;20146;-82
2024/02/21 07:08:07;;;;;;;4.60;1.50;;;8.90;99.90;;;;;;6174456;28;20058;-83
2024/02/21 07:11:08;;;;;;;6.90;1.83;;;8.90;99.90;;;;;;6156229;28;20098;-82
2024/02/21 07:14:10;;;;;;;7.07;1.67;;;8.90;99.90;;;;;;6141232;28;20169;-82
2024/02/21 07:17:12;;;;;;;4.85;1.30;;;9.00;99.90;;;;;;6173648;28;20073;-82
2024/02/21 07:20:14;;;;;;;7.43;1.42;;;9.00;99.90;;;;;;6171774;28;20186;-82
2024/02/21 07:23:15;;;;;;;5.28;1.33;;;9.00;99.90;;;;;;6174003;28;20054;-83
2024/02/21 07:26:17;;;;;;;5.53;1.52;;;9.00;99.90;;;;;;6169223;28;20091;-83
2024/02/21 07:29:19;;;;;;;5.75;1.30;;;9.00;99.90;;;;;;6158286;28;20071;-83
2024/02/21 07:32:20;;;;;;;6.43;1.60;;;9.00;99.90;;;;;;6172498;28;20051;-82
2024/02/21 07:35:22;;;;;;;4.47;1.40;;;9.00;99.90;;;;;;6162369;28;20057;-87
2024/02/21 07:38:24;;;;;;;7.22;1.85;;;9.00;99.90;;;;;;6149768;28;20154;-85
2024/02/21 07:41:25;;;;;;;5.25;1.70;;;9.00;99.90;;;;;;6172725;28;20078;-84
2024/02/21 07:44:27;;;;;;;6.55;1.50;;;9.00;99.90;;;;;;6140835;28;20560;-84
2024/02/21 07:47:28;;;;;;;9.55;1.90;;;9.10;99.90;;;;;;6169267;28;20046;-84
2024/02/21 07:50:30;;;;;;;9.63;2.30;;;9.10;99.90;;;;;;6149704;28;20067;-87
2024/02/21 07:53:32;;;;;;;7.63;2.15;;;9.10;99.90;;;;;;6160337;28;20157;-85
2024/02/21 07:56:34;;;;;;;10.10;1.92;;;9.10;99.90;;;;;;6168817;28;20054;-83
2024/02/21 07:59:35;;;;;;;8.43;2.20;;;9.20;99.90;;;;;;6155923;28;20054;-82
2024/02/21 08:02:37;;;;;;;8.40;2.13;;;9.20;99.90;;;;;;6160175;28;20061;-84
2024/02/21 08:05:39;;;;;;;9.38;2.28;;;9.20;99.90;;;;;;6156760;28;20071;-83
2024/02/21 08:08:41;;;;;;;6.88;2.03;;;9.30;99.90;;;;;;6172210;28;20083;-90
2024/02/21 08:11:42;;;;;;;7.80;2.40;;;9.30;99.90;;;;;;6150616;28;20062;-84
2024/02/21 08:14:44;;;;;;;9.82;2.42;;;9.30;99.90;;;;;;6160132;28;20105;-85
2024/02/21 08:17:46;;;;;;;10.88;2.40;;;9.30;99.90;;;;;;6151923;28;20069;-88
2024/02/21 08:20:47;;;;;;;10.02;2.03;;;9.30;99.90;;;;;;6163327;28;20138;-91
2024/02/21 08:23:51;;;;;;;10.90;2.13;;;9.40;99.90;;;;;;6173523;28;20058;-86
2024/02/21 08:26:53;;;;;;;5.90;1.67;;;9.40;99.90;;;;;;6169763;28;20071;-85
2024/02/21 08:29:55;;;;;;;9.48;2.30;;;9.40;99.90;;;;;;6139887;28;20613;-84
2024/02/21 08:32:56;;;;;;;12.77;2.45;;;9.40;99.90;;;;;;6165277;28;20050;-83
2024/02/21 08:35:58;;;;;;;8.80;2.17;;;9.40;99.90;;;;;;6151385;28;20499;-83
2024/02/21 08:39:00;;;;;;;7.75;2.40;;;9.50;99.90;;;;;;6162556;28;20100;-82
2024/02/21 08:42:01;;;;;;;10.55;2.60;;;9.50;99.90;;;;;;6158888;28;20482;-81
2024/02/21 08:45:03;;;;;;;12.32;2.35;;;9.60;99.90;;;;;;6147367;28;20066;-82
2024/02/21 08:48:05;;;;;;;13.95;2.40;;;9.60;99.90;;;;;;6167578;28;20070;-84
2024/02/21 08:51:07;;;;;;;9.73;2.33;;;9.60;99.90;;;;;;6170344;28;20557;-82
2024/02/21 08:54:09;;;;;;;8.95;2.45;;;9.60;99.90;;;;;;6171109;28;20087;-81
2024/02/21 08:57:11;;;;;;;5.85;1.90;;;9.60;99.90;;;;;;6151495;28;20055;-82
2024/02/21 09:00:12;;;;;;;7.80;1.90;;;9.60;99.90;;;;;;6140046;28;20055;-81
2024/02/21 09:03:14;;;;;;;5.35;1.70;;;9.60;99.90;;;;;;6157867;28;20074;-86
2024/02/21 09:06:16;;;;;;;6.82;1.55;;;9.60;99.90;;;;;;6159362;28;20057;-84
2024/02/21 09:09:18;;;;;;;7.68;2.10;;;9.70;99.90;;;;;;6154551;28;20054;-84
2024/02/21 09:12:19;;;;;;;6.65;1.55;;;9.70;99.90;;;;;;6154822;28;20050;-82
2024/02/21 09:15:21;;;;;;;8.82;1.67;;;9.80;99.90;;;;;;6148955;28;20061;-82
2024/02/21 09:18:23;;;;;;;5.20;1.60;;;9.70;99.90;;;;;;6163363;28;20055;-82
2024/02/21 09:21:25;;;;;;;14.27;2.17;;;9.80;99.90;;;;;;6172123;28;20050;-83
2024/02/21 09:24:26;;;;;;;5.93;1.70;;;9.80;99.90;;;;;;6159323;28;20158;-85
2024/02/21 09:27:28;;;;;;;5.05;1.33;;;9.80;99.90;;;;;;6171547;28;20051;-89
2024/02/21 09:30:30;;;;;;;9.02;1.65;;;9.80;99.90;;;;;;6142627;28;20101;-92
2024/02/21 09:33:32;;;;;;;8.45;1.73;;;9.80;99.90;;;;;;6169288;28;20061;-91
2024/02/21 09:36:34;;;;;;;6.22;1.60;;;9.80;99.90;;;;;;6169777;28;20426;-94
2024/02/21 09:39:35;;;;;;;5.97;1.40;;;10.30;99.90;;;;;;6175650;28;20051;-86
2024/02/21 09:42:38;;;;;;;5.80;1.60;;;;;;;;;;6169029;28;20055;-84
2024/02/21 09:45:40;;;;;;;5.68;1.33;;;11.80;99.90;;;;;;6169366;28;20063;-86
2024/02/21 09:48:42;;;;;;;7.43;1.48;;;9.80;99.90;;;;;;6173044;28;20058;-87
2024/02/21 09:51:44;;;;;;;8.18;1.77;;;9.90;99.90;;;;;;6153314;28;20063;-89
2024/02/21 09:54:45;;;;;;;8.27;2.00;;;9.80;99.90;;;;;;6171205;28;20055;-86
2024/02/21 09:57:47;;;;;;;7.97;1.50;;;9.90;99.90;;;;;;6151141;28;20054;-87
2024/02/21 10:00:54;;;;;;;8.80;1.65;;;9.90;99.90;;;;;;6173904;28;20177;-86
2024/02/21 10:03:56;;;;;;;6.70;1.70;;;9.90;99.90;;;;;;6153132;28;20055;-90
2024/02/21 10:06:59;;;;;;;5.13;1.23;;;9.90;99.90;;;;;;6176517;28;20058;-86
2024/02/21 10:10:01;;;;;;;6.47;1.23;;;9.80;99.90;;;;;;6152590;28;20062;-86
2024/02/21 10:13:03;;;;;;;8.40;1.52;;;9.90;99.90;;;;;;6162828;28;20050;-90
2024/02/21 10:16:04;;;;;;;5.75;1.40;;;9.90;99.90;;;;;;6151991;28;20483;-85
2024/02/21 10:19:06;;;;;;;4.32;1.38;;;10.00;99.90;;;;;;6175234;28;20061;-87
2024/02/21 10:22:08;;;;;;;7.72;1.38;;;10.00;99.90;;;;;;6151737;28;20394;-83
2024/02/21 10:25:11;;;;;;;4.50;1.10;;;10.00;99.90;;;;;;6175808;28;20051;-85
2024/02/21 10:28:14;;;;;;;7.63;1.40;;;9.90;99.90;;;;;;6153819;28;20050;-88
2024/02/21 10:31:16;;;;;;;5.30;1.30;;;9.90;99.90;;;;;;6179780;28;20047;-92
2024/02/21 10:34:18;;;;;;;4.45;1.17;;;10.00;99.90;;;;;;6153881;28;20434;-89
2024/02/21 10:37:20;;;;;;;5.15;1.17;;;9.90;99.90;;;;;;6179858;28;20145;-92
2024/02/21 10:40:21;;;;;;;4.20;1.00;;;9.90;99.90;;;;;;6176504;28;20061;-84
2024/02/21 10:43:23;;;;;;;5.60;1.40;;;9.90;99.90;;;;;;6159684;28;20094;-90
2024/02/21 10:46:25;;;;;;;4.03;1.05;;;9.90;99.90;;;;;;6175442;28;20090;-87
2024/02/21 10:49:31;;;;;;;6.93;1.70;;;9.90;99.90;;;;;;6166182;28;20046;-87
2024/02/21 10:52:35;;;;;;;5.30;1.38;;;9.90;99.90;;;;;;6166873;28;20154;-87
2024/02/21 10:55:36;;;;;;;7.07;1.60;;;10.00;99.90;;;;;;6201253;28;20087;-88
2024/02/21 10:58:38;;;;;;;5.47;1.33;;;10.20;99.90;;;;;;6167153;28;20058;-81
2024/02/21 11:01:40;;;;;;;8.65;1.77;;;10.00;99.90;;;;;;6163892;28;20427;-82
2024/02/21 11:04:43;;;;;;;4.78;1.60;;;;;;;;;;6184334;28;20117;-84
2024/02/21 11:07:45;;;;;;;5.65;1.58;;;10.10;99.90;;;;;;6166719;28;20155;-87
2024/02/21 11:10:46;;;;;;;6.88;1.30;;;10.10;99.90;;;;;;6173267;28;20062;-82
2024/02/21 11:13:48;;;;;;;3.58;1.15;;;10.10;99.90;;;;;;6148784;28;20061;-87
2024/02/21 11:16:50;;;;;;;4.93;0.90;;;10.10;99.90;;;;;;6151425;28;20137;-94
2024/02/21 11:19:51;;;;;;;3.25;0.77;;;10.20;99.90;;;;;;6175260;28;20062;-84
2024/02/21 11:22:55;;;;;;;3.50;0.90;;;;;;;;;;6175092;28;20431;-89
2024/02/21 11:25:57;;;;;;;2.90;0.80;;;10.30;99.90;;;;;;6149198;28;20055;-93
2024/02/21 11:28:59;;;;;;;3.50;0.90;;;10.30;99.90;;;;;;6144339;28;20059;-86
2024/02/21 11:32:01;;;;;;;2.90;0.73;;;10.30;99.90;;;;;;6172699;28;20465;-88
2024/02/21 11:35:06;;;;;;;3.70;0.80;;;10.30;99.90;;;;;;6150366;28;20047;-91
2024/02/21 11:38:10;;;;;;;3.25;0.60;;;10.30;99.90;;;;;;6172673;28;20059;-83
2024/02/21 11:41:12;;;;;;;3.78;0.80;;;10.60;99.90;;;;;;6148920;28;20505;-80
2024/02/21 11:44:17;;;;;;;3.83;0.85;;;10.40;99.90;;;;;;6149247;28;20058;-85
2024/02/21 11:47:18;;;;;;;1.83;0.70;;;10.40;99.90;;;;;;6173020;28;20050;-86
2024/02/21 11:50:20;;;;;;;3.33;1.05;;;10.50;99.90;;;;;;6148393;28;20062;-85
2024/02/21 11:53:22;;;;;;;3.88;0.90;;;10.50;99.90;;;;;;6172496;28;20055;-84
2024/02/21 11:56:25;;;;;;;1.67;0.60;;;10.50;99.90;;;;;;6147156;28;20055;-83
2024/02/21 11:59:27;;;;;;;3.60;0.90;;;10.50;99.90;;;;;;6157641;28;20434;-84
2024/02/21 12:02:29;;;;;;;2.38;0.70;;;10.50;99.90;;;;;;6148717;28;20393;-83
2024/02/21 12:05:30;;;;;;;2.42;0.70;;;10.50;99.90;;;;;;6171310;28;20054;-84
2024/02/21 12:08:32;;;;;;;3.17;0.70;;;10.50;99.90;;;;;;6147997;28;20406;-84
2024/02/21 12:11:34;;;;;;;3.00;0.60;;;10.50;99.90;;;;;;6170272;28;20061;-85
2024/02/21 12:14:35;;;;;;;3.80;0.60;;;10.50;99.90;;;;;;6133122;28;20055;-83
2024/02/21 12:17:38;;;;;;;1.58;0.60;;;10.40;99.90;;;;;;6171378;28;20097;-83
2024/02/21 12:20:40;;;;;;;2.65;0.63;;;10.40;99.90;;;;;;6149780;28;20059;-83
2024/02/21 12:23:42;;;;;;;2.40;0.63;;;10.50;99.90;;;;;;6171374;28;20387;-84
2024/02/21 12:26:44;;;;;;;2.85;0.80;;;10.50;99.90;;;;;;6147286;28;20059;-84
2024/02/21 12:29:45;;;;;;;3.88;0.80;;;10.50;99.90;;;;;;6151289;28;20418;-85
2024/02/21 12:32:48;;;;;;;2.80;0.77;;;10.60;99.90;;;;;;6148719;28;20058;-88
2024/02/21 12:35:50;;;;;;;2.92;0.70;;;10.70;99.90;;;;;;6171586;28;20165;-86
2024/02/21 12:38:52;;;;;;;2.67;0.60;;;10.70;99.90;;;;;;6148758;28;20509;-86
2024/02/21 12:41:54;;;;;;;1.75;0.50;;;10.90;99.90;;;;;;6171205;28;20414;-87
2024/02/21 12:44:55;;;;;;;3.20;0.75;;;11.00;99.90;;;;;;6142761;28;20069;-87
2024/02/21 12:47:57;;;;;;;1.83;0.60;;;10.90;99.90;;;;;;6147428;28;20051;-86
2024/02/21 12:50:59;;;;;;;2.63;0.70;;;10.90;99.90;;;;;;6151867;28;20059;-82
2024/02/21 12:54:02;;;;;;;1.63;0.52;;;10.90;99.90;;;;;;6171494;28;20053;-84
2024/02/21 12:57:05;;;;;;;3.72;0.70;;;10.90;99.90;;;;;;6147948;28;20050;-83
2024/02/21 13:00:08;;;;;;;1.70;0.60;;;11.10;99.90;;;;;;6165648;28;20055;-87
2024/02/21 13:03:10;;;;;;;2.90;0.60;;;11.10;99.90;;;;;;6147055;28;20055;-84
2024/02/21 13:06:12;;;;;;;4.63;0.63;;;11.50;99.90;;;;;;6169058;28;20062;-86
2024/02/21 13:09:14;;;;;;;2.33;0.60;;;11.10;99.90;;;;;;6161349;28;20259;-88
2024/02/21 13:12:16;;;;;;;2.30;0.50;;;11.20;99.90;;;;;;6168445;28;20061;-85
2024/02/21 13:15:18;;;;;;;1.92;0.65;;;11.20;99.90;;;;;;6174341;28;20051;-91
2024/02/21 13:18:19;;;;;;;2.33;0.68;;;11.30;99.90;;;;;;6174589;28;20062;-86
2024/02/21 13:21:21;;;;;;;1.92;0.60;;;11.30;99.90;;;;;;6151274;28;20052;-94
2024/02/21 13:24:23;;;;;;;1.73;0.55;;;11.30;99.90;;;;;;6171703;28;20059;-87
2024/02/21 13:27:25;;;;;;;1.25;0.40;;;11.30;99.90;;;;;;6173134;28;20059;-88
2024/02/21 13:30:27;;;;;;;2.40;0.52;;;11.30;99.90;;;;;;6149173;28;20047;-85
2024/02/21 13:33:29;;;;;;;2.47;0.60;;;11.30;99.90;;;;;;6139367;28;20090;-86
2024/02/21 13:36:30;;;;;;;3.38;0.73;;;11.40;99.90;;;;;;6173669;28;20536;-88
2024/02/21 13:39:34;;;;;;;2.92;0.73;;;11.30;99.90;;;;;;6153839;28;20125;-88
2024/02/21 13:42:36;;;;;;;3.67;0.80;;;11.30;99.90;;;;;;6175510;28;20070;-88
2024/02/21 13:45:38;;;;;;;3.13;0.73;;;11.30;99.90;;;;;;6153375;29;20499;-86
2024/02/21 13:48:39;;;;;;;2.75;0.63;;;11.40;99.90;;;;;;6176912;28;20085;-87
2024/02/21 13:51:42;;;;;;;3.40;1.58;;;11.40;99.90;;;;;;6160482;28;20060;-87
2024/02/21 13:54:44;;;;;;;2.20;0.63;;;11.40;99.90;;;;;;6154993;28;20102;-86
2024/02/21 13:57:46;;;;;;;3.00;0.70;;;11.40;99.90;;;;;;6180233;28;20071;-91
2024/02/21 14:00:48;;;;;;;2.22;0.50;;;11.40;99.90;;;;;;6173307;28;20047;-88
2024/02/21 14:03:50;;;;;;;2.95;0.60;;;;;;;;;;6164945;28;20063;-88
2024/02/21 14:06:53;;;;;;;1.55;0.60;;;11.30;99.90;;;;;;6166776;28;20058;-84
2024/02/21 14:09:54;;;;;;;3.85;0.85;;;11.30;99.90;;;;;;6173069;28;20086;-89
2024/02/21 14:12:57;;;;;;;3.75;0.70;;;11.30;99.90;;;;;;6149373;28;20055;-82
2024/02/21 14:15:58;;;;;;;3.40;0.70;;;11.30;99.90;;;;;;6170455;28;20112;-82
2024/02/21 14:19:00;;;;;;;2.70;0.80;;;11.20;99.90;;;;;;6156788;28;20065;-83
2024/02/21 14:22:02;;;;;;;2.30;0.68;;;11.10;99.90;;;;;;6156558;28;20158;-84
2024/02/21 14:25:07;;;;;;;4.32;1.00;;;11.10;99.90;;;;;;6164327;28;20047;-84
2024/02/21 14:28:09;;;;;;;3.58;0.80;;;11.10;99.90;;;;;;6148201;28;20940;-87
2024/02/21 14:31:11;;;;;;;2.58;0.70;;;11.10;99.90;;;;;;6160673;28;20059;-84
2024/02/21 14:34:12;;;;;;;4.85;0.85;;;11.10;99.90;;;;;;6162713;28;20482;-84
2024/02/21 14:37:14;;;;;;;3.72;0.80;;;11.20;99.90;;;;;;6155716;28;20241;-84
2024/02/21 14:40:16;;;;;;;3.90;0.90;;;11.00;99.90;;;;;;6165417;28;20154;-84
2024/02/21 14:43:17;;;;;;;3.00;0.68;;;11.10;99.90;;;;;;6144478;28;20055;-83
2024/02/21 14:46:20;;;;;;;3.70;0.70;;;11.10;99.90;;;;;;6163923;28;20515;-86
2024/02/21 14:49:22;;;;;;;2.63;0.73;;;11.00;99.90;;;;;;6167124;28;20061;-88
2024/02/21 14:52:30;;;;;;;2.95;0.70;;;11.10;99.90;;;;;;6171466;28;20510;-88
2024/02/21 14:55:32;;;;;;;3.13;0.70;;;11.10;99.90;;;;;;6162944;28;20051;-89
2024/02/21 14:58:33;;;;;;;2.53;0.70;;;11.20;99.90;;;;;;6165110;28;20062;-90
2024/02/21 15:01:37;;;;;;;3.05;0.63;;;11.20;99.90;;;;;;6158840;28;20055;-88
2024/02/21 15:04:39;;;;;;;3.70;0.77;;;11.20;99.90;;;;;;6163095;28;20095;-86
2024/02/21 15:07:42;;;;;;;2.92;0.82;;;11.20;99.90;;;;;;6154950;28;20142;-92
2024/02/21 15:10:44;;;;;;;2.15;0.60;;;11.20;99.90;;;;;;6163220;28;20051;-91
2024/02/21 15:13:46;;;;;;;3.72;0.70;;;11.80;99.90;;;;;;6165784;28;20061;-88
2024/02/21 15:16:48;;;;;;;3.15;0.75;;;11.20;99.90;;;;;;6144798;28;20049;-91
2024/02/21 15:19:50;;;;;;;2.80;0.70;;;11.90;99.90;;;;;;6179825;28;20066;-90
2024/02/21 15:22:52;;;;;;;3.50;0.60;;;11.30;99.90;;;;;;6154098;28;20070;-88
2024/02/21 15:25:54;;;;;;;2.20;0.80;;;11.30;99.90;;;;;;6174556;28;20513;-87
2024/02/21 15:28:56;;;;;;;4.60;0.70;;;11.30;99.90;;;;;;6146402;28;20054;-88
2024/02/21 15:31:58;;;;;;;2.67;0.70;;;11.30;99.90;;;;;;6152119;28;20065;-90
2024/02/21 15:35:00;;;;;;;4.18;0.88;;;11.20;99.90;;;;;;6175041;28;20058;-93
2024/02/21 15:38:03;;;;;;;5.80;0.90;;;11.20;99.90;;;;;;6156806;28;20070;-89
2024/02/21 15:41:04;;;;;;;3.22;0.80;;;11.30;99.90;;;;;;6175469;28;20426;-90
2024/02/21 15:44:07;;;;;;;4.85;0.95;;;11.50;99.90;;;;;;6139677;28;20055;-89
2024/02/21 15:47:09;;;;;;;3.47;0.65;;;11.30;99.90;;;;;;6149999;28;20063;-91
2024/02/21 15:50:11;;;;;;;2.65;0.82;;;11.40;99.90;;;;;;6174349;28;20078;-90
2024/02/21 15:53:12;;;;;;;2.38;0.70;;;11.30;99.90;;;;;;6151784;28;20070;-90